createdAt,value
2022-08-08T00:00:49.968Z,14.92
2022-08-08T00:02:32.804Z,14.89
2022-08-08T00:05:44.006Z,14.91
2022-08-08T00:08:33.145Z,14.95
2022-08-08T00:11:20.747Z,14.98
2022-08-08T00:14:16.828Z,14.98
2022-08-08T00:17:23.412Z,14.98
2022-08-08T00:20:14.740Z,14.97
2022-08-08T00:23:06.182Z,14.93
2022-08-08T00:25:55.093Z,14.89
2022-08-08T00:28:44.709Z,14.88
2022-08-08T00:32:28.420Z,14.89
2022-08-08T00:35:21.020Z,14.91
2022-08-08T00:38:31.210Z,14.89
2022-08-08T00:42:08.924Z,14.76
2022-08-08T00:45:48.007Z,14.54
2022-08-08T00:49:22.120Z,14.44
2022-08-08T00:52:29.182Z,14.32
2022-08-08T00:55:53.288Z,14.29
2022-08-08T00:59:10.545Z,14.36
2022-08-08T01:02:02.070Z,14.39
2022-08-08T01:05:41.948Z,14.40
2022-08-08T01:09:35.417Z,14.43
2022-08-08T01:12:34.049Z,14.46
2022-08-08T01:15:54.733Z,14.46
2022-08-08T01:20:01.282Z,14.43
2022-08-08T01:23:06.582Z,14.36
2022-08-08T01:26:40.355Z,14.25
2022-08-08T01:29:58.668Z,14.17
2022-08-08T01:33:23.695Z,14.11
2022-08-08T01:36:59.742Z,14.08
2022-08-08T01:40:02.838Z,14.15
2022-08-08T01:42:54.679Z,14.23
2022-08-08T01:45:59.727Z,14.27
2022-08-08T01:48:58.107Z,14.30
2022-08-08T01:52:42.500Z,14.30
2022-08-08T01:55:19.617Z,14.28
2022-08-08T01:58:39.475Z,14.24
2022-08-08T02:02:02.884Z,14.23
2022-08-08T02:05:02.585Z,14.16
2022-08-08T02:08:02.410Z,14.02
2022-08-08T02:11:00.767Z,13.95
2022-08-08T02:13:55.403Z,13.89
2022-08-08T02:16:54.399Z,13.80
2022-08-08T02:20:07.311Z,13.81
2022-08-08T02:23:04.794Z,13.86
2022-08-08T02:26:00.761Z,13.88
2022-08-08T02:29:01.859Z,13.91
2022-08-08T02:32:05.508Z,13.98
2022-08-08T02:35:18.241Z,14.06
2022-08-08T02:38:55.906Z,14.12
2022-08-08T02:42:07.850Z,14.19
2022-08-08T02:45:29.579Z,14.24
2022-08-08T02:48:48.084Z,14.28
2022-08-08T02:51:59.800Z,14.31
2022-08-08T02:55:23.451Z,14.34
2022-08-08T02:58:47.591Z,14.35
2022-08-08T03:02:08.056Z,14.37
2022-08-08T03:05:22.766Z,14.37
2022-08-08T03:08:53.024Z,14.36
2022-08-08T03:12:13.836Z,14.37
2022-08-08T03:15:58.627Z,14.37
2022-08-08T03:18:31.025Z,14.36
2022-08-08T03:21:16.047Z,14.37
2022-08-08T03:24:02.267Z,14.38
2022-08-08T03:26:53.212Z,14.38
2022-08-08T03:29:56.155Z,14.40
2022-08-08T03:33:07.623Z,14.39
2022-08-08T03:36:15.978Z,14.43
2022-08-08T03:39:14.557Z,14.43
2022-08-08T03:42:27.145Z,14.44
2022-08-08T03:46:06.325Z,14.48
2022-08-08T03:48:20.962Z,14.48
2022-08-08T03:51:40.098Z,14.48
2022-08-08T03:54:40.859Z,14.48
2022-08-08T03:58:33.347Z,14.48
2022-08-08T04:00:32.773Z,14.47
2022-08-08T04:03:57.233Z,14.48
2022-08-08T04:06:29.610Z,14.47
2022-08-08T04:09:17.638Z,14.43
2022-08-08T04:12:03.193Z,14.39
2022-08-08T04:14:57.017Z,14.38
2022-08-08T04:17:57.897Z,14.36
2022-08-08T04:20:42.962Z,14.34
2022-08-08T04:23:26.083Z,14.31
2022-08-08T04:26:40.076Z,14.31
2022-08-08T04:29:37.352Z,14.30
2022-08-08T04:32:30.578Z,14.31
2022-08-08T04:35:20.392Z,14.31
2022-08-08T04:38:09.535Z,14.31
2022-08-08T04:40:59.137Z,14.30
2022-08-08T04:43:45.999Z,14.27
2022-08-08T04:46:36.986Z,14.28
2022-08-08T04:49:28.745Z,14.31
2022-08-08T04:52:33.808Z,14.33
2022-08-08T04:55:20.876Z,14.35
2022-08-08T04:58:11.055Z,14.39
2022-08-08T05:00:55.546Z,14.43
2022-08-08T05:04:09.568Z,14.48
2022-08-08T05:06:47.419Z,14.51
2022-08-08T05:09:36.342Z,14.56
2022-08-08T05:12:20.858Z,14.61
2022-08-08T05:15:07.308Z,14.69
2022-08-08T05:17:54.132Z,14.72
2022-08-08T05:20:49.975Z,14.76
2022-08-08T05:23:41.171Z,14.79
2022-08-08T05:26:27.450Z,14.85
2022-08-08T05:29:12.003Z,14.91
2022-08-08T05:32:04.026Z,14.95
2022-08-08T05:34:51.497Z,14.99
2022-08-08T05:37:54.690Z,15.06
2022-08-08T05:41:05.770Z,15.13
2022-08-08T05:44:04.225Z,15.18
2022-08-08T05:46:51.283Z,15.22
2022-08-08T05:49:38.144Z,15.25
2022-08-08T05:52:31.632Z,15.27
2022-08-08T05:56:11.023Z,15.30
2022-08-08T05:58:58.189Z,15.32
2022-08-08T06:01:57.848Z,15.42
2022-08-08T06:04:43.894Z,15.50
2022-08-08T06:07:46.130Z,15.62
2022-08-08T06:10:33.469Z,15.75
2022-08-08T06:13:22.599Z,15.90
2022-08-08T06:16:07.001Z,16.03
2022-08-08T06:19:07.371Z,16.17
2022-08-08T06:21:57.310Z,16.32
2022-08-08T06:25:01.066Z,16.46
2022-08-08T06:27:48.887Z,16.53
2022-08-08T06:30:36.078Z,16.61
2022-08-08T06:33:36.924Z,16.65
2022-08-08T06:36:53.396Z,16.70
2022-08-08T06:39:56.089Z,16.74
2022-08-08T06:42:41.792Z,16.74
2022-08-08T06:45:25.520Z,16.76
2022-08-08T06:48:11.018Z,16.77
2022-08-08T06:50:58.611Z,16.79
2022-08-08T06:53:50.816Z,16.81
2022-08-08T06:56:42.443Z,16.83
2022-08-08T07:00:02.562Z,16.86
2022-08-08T07:02:46.812Z,16.89
2022-08-08T07:05:40.151Z,16.94
2022-08-08T07:08:30.525Z,16.99
2022-08-08T07:11:22.295Z,17.03
2022-08-08T07:14:08.833Z,17.09
2022-08-08T07:17:09.234Z,17.14
2022-08-08T07:20:05.397Z,17.16
2022-08-08T07:22:59.311Z,17.20
2022-08-08T07:25:54.438Z,17.23
2022-08-08T07:28:38.743Z,17.29
2022-08-08T07:31:25.145Z,17.34
2022-08-08T07:34:26.597Z,17.39
2022-08-08T07:37:16.829Z,17.43
2022-08-08T07:40:02.808Z,17.46
2022-08-08T07:42:48.427Z,17.49
2022-08-08T07:45:34.697Z,17.53
2022-08-08T07:48:34.827Z,17.57
2022-08-08T07:51:23.972Z,17.64
2022-08-08T07:54:32.233Z,17.69
2022-08-08T07:57:29.084Z,17.75
2022-08-08T08:00:25.180Z,17.77
2022-08-08T08:03:41.518Z,17.78
2022-08-08T08:06:30.775Z,17.81
2022-08-08T08:09:24.878Z,17.85
2022-08-08T08:12:31.299Z,17.89
2022-08-08T08:15:21.509Z,17.93
2022-08-08T08:18:14.253Z,18.00
2022-08-08T08:21:02.969Z,18.10
2022-08-08T08:24:02.830Z,18.17
2022-08-08T08:26:54.711Z,18.21
2022-08-08T08:29:39.912Z,18.22
2022-08-08T08:32:35.643Z,18.31
2022-08-08T08:35:29.728Z,18.40
2022-08-08T08:38:28.783Z,18.43
2022-08-08T08:41:20.188Z,18.48
2022-08-08T08:44:13.842Z,18.53
2022-08-08T08:46:58.917Z,18.55
2022-08-08T08:49:44.699Z,18.56
2022-08-08T08:52:28.807Z,18.66
2022-08-08T08:55:16.210Z,18.79
2022-08-08T08:58:05.190Z,18.94
2022-08-08T09:01:09.015Z,19.09
2022-08-08T09:04:00.681Z,19.26
2022-08-08T09:06:51.598Z,19.47
2022-08-08T09:09:39.868Z,19.69
2022-08-08T09:12:36.931Z,19.82
2022-08-08T09:15:37.200Z,19.91
2022-08-08T09:18:21.498Z,19.95
2022-08-08T09:21:56.005Z,20.00
2022-08-08T09:24:15.305Z,20.16
2022-08-08T09:27:09.239Z,20.40
2022-08-08T09:30:08.595Z,20.70
2022-08-08T09:33:12.425Z,20.94
2022-08-08T09:36:02.749Z,21.06
2022-08-08T09:38:54.559Z,21.02
2022-08-08T09:41:54.802Z,20.98
2022-08-08T09:45:03.866Z,20.88
2022-08-08T09:48:04.506Z,20.87
2022-08-08T09:50:56.086Z,20.84
2022-08-08T09:53:59.705Z,20.90
2022-08-08T09:56:55.266Z,20.94
2022-08-08T10:00:02.217Z,21.05
2022-08-08T10:02:56.801Z,21.44
2022-08-08T10:05:40.339Z,21.80
2022-08-08T10:08:23.437Z,22.19
2022-08-08T10:11:12.116Z,22.50
2022-08-08T10:14:34.799Z,22.60
2022-08-08T10:17:56.329Z,22.55
2022-08-08T10:20:25.973Z,22.72
2022-08-08T10:23:41.939Z,23.14
2022-08-08T10:26:52.358Z,23.50
2022-08-08T10:29:58.949Z,23.90
2022-08-08T10:32:48.785Z,24.34
2022-08-08T10:36:09.244Z,24.76
2022-08-08T10:38:40.627Z,25.20
2022-08-08T10:41:35.883Z,25.29
2022-08-08T10:44:36.807Z,25.62
2022-08-08T10:47:22.795Z,26.00
2022-08-08T10:50:08.745Z,26.37
2022-08-08T10:52:52.123Z,26.58
2022-08-08T10:55:41.138Z,26.27
2022-08-08T10:58:29.769Z,25.98
2022-08-08T11:01:13.466Z,25.77
2022-08-08T11:04:04.670Z,25.51
2022-08-08T11:06:49.399Z,25.28
2022-08-08T11:09:32.588Z,25.19
2022-08-08T11:12:17.416Z,25.10
2022-08-08T11:15:01.461Z,24.96
2022-08-08T11:17:58.476Z,24.82
2022-08-08T11:20:52.362Z,24.61
2022-08-08T11:23:37.464Z,24.48
2022-08-08T11:26:22.613Z,24.47
2022-08-08T11:29:11.611Z,24.73
2022-08-08T11:31:59.514Z,25.19
2022-08-08T11:35:08.946Z,25.69
2022-08-08T11:38:35.701Z,26.26
2022-08-08T11:40:53.743Z,26.72
2022-08-08T11:43:41.781Z,27.04
2022-08-08T11:46:28.132Z,27.39
2022-08-08T11:49:17.239Z,27.74
2022-08-08T11:52:00.787Z,28.05
2022-08-08T11:54:48.226Z,28.29
2022-08-08T11:57:35.124Z,28.56
2022-08-08T12:00:19.937Z,28.91
2022-08-08T12:03:16.922Z,29.16
2022-08-08T12:06:13.762Z,29.25
2022-08-08T12:09:07.293Z,28.97
2022-08-08T12:11:52.492Z,28.74
2022-08-08T12:14:35.548Z,28.47
2022-08-08T12:17:20.139Z,28.14
2022-08-08T12:20:05.187Z,27.73
2022-08-08T12:22:51.134Z,27.56
2022-08-08T12:25:38.323Z,27.70
2022-08-08T12:28:29.421Z,27.67
2022-08-08T12:31:13.373Z,27.54
2022-08-08T12:34:02.109Z,27.34
2022-08-08T12:36:49.113Z,26.92
2022-08-08T12:40:01.513Z,26.52
2022-08-08T12:42:46.518Z,26.17
2022-08-08T12:45:57.829Z,25.99
2022-08-08T12:48:39.276Z,25.98
2022-08-08T12:51:23.509Z,26.32
2022-08-08T12:54:25.448Z,26.93
2022-08-08T12:57:17.290Z,27.36
2022-08-08T13:00:04.991Z,27.52
2022-08-08T13:03:01.048Z,27.69
2022-08-08T13:06:03.641Z,27.65
2022-08-08T13:08:53.561Z,27.55
2022-08-08T13:12:28.218Z,27.59
2022-08-08T13:14:53.351Z,27.26
2022-08-08T13:18:09.932Z,26.66
2022-08-08T13:20:48.392Z,26.15
2022-08-08T13:23:36.174Z,25.77
2022-08-08T13:26:20.571Z,25.54
2022-08-08T13:29:12.876Z,25.36
2022-08-08T13:32:03.121Z,25.47
2022-08-08T13:34:52.660Z,26.08
2022-08-08T13:38:05.862Z,26.72
2022-08-08T13:40:44.867Z,27.02
2022-08-08T13:43:28.670Z,26.97
2022-08-08T13:46:26.846Z,26.74
2022-08-08T13:50:37.621Z,26.64
2022-08-08T13:52:23.177Z,26.47
2022-08-08T13:55:29.352Z,26.41
2022-08-08T13:58:20.493Z,26.54
2022-08-08T14:01:15.005Z,26.66
2022-08-08T14:04:00.232Z,26.63
2022-08-08T14:06:46.452Z,26.62
2022-08-08T14:10:05.850Z,26.57
2022-08-08T14:12:43.746Z,26.32
2022-08-08T14:15:39.622Z,26.11
2022-08-08T14:18:35.657Z,25.90
2022-08-08T14:21:48.766Z,25.71
2022-08-08T14:24:35.622Z,25.57
2022-08-08T14:27:20.458Z,25.42
2022-08-08T14:30:17.790Z,25.17
2022-08-08T14:33:01.558Z,25.07
2022-08-08T14:35:44.689Z,24.95
2022-08-08T14:38:52.643Z,24.76
2022-08-08T14:41:53.186Z,24.55
2022-08-08T14:44:39.474Z,24.46
2022-08-08T14:47:24.805Z,24.39
2022-08-08T14:50:21.422Z,24.31
2022-08-08T14:53:15.427Z,24.09
2022-08-08T14:56:02.164Z,23.94
2022-08-08T14:58:47.597Z,23.81
2022-08-08T15:01:37.323Z,23.86
2022-08-08T15:04:26.319Z,23.99
2022-08-08T15:07:22.704Z,24.32
2022-08-08T15:10:09.453Z,24.84
2022-08-08T15:12:53.858Z,25.26
2022-08-08T15:16:02.854Z,25.36
2022-08-08T15:18:40.167Z,25.33
2022-08-08T15:21:31.206Z,25.29
2022-08-08T15:24:16.991Z,25.23
2022-08-08T15:27:12.020Z,25.10
2022-08-08T15:30:06.244Z,24.93
2022-08-08T15:32:55.534Z,24.81
2022-08-08T15:35:40.239Z,24.68
2022-08-08T15:38:24.445Z,24.55
2022-08-08T15:41:08.561Z,24.48
2022-08-08T15:44:01.009Z,24.36
2022-08-08T15:46:45.335Z,24.29
2022-08-08T15:49:34.673Z,24.17
2022-08-08T15:52:25.002Z,24.12
2022-08-08T15:55:11.228Z,24.08
2022-08-08T15:57:55.824Z,24.10
2022-08-08T16:00:40.139Z,24.10
2022-08-08T16:03:30.651Z,24.10
2022-08-08T16:06:15.402Z,24.07
2022-08-08T16:13:03.375Z,23.97
2022-08-08T16:13:03.375Z,24.03
2022-08-08T16:15:19.770Z,23.91
2022-08-08T16:18:11.617Z,23.81
2022-08-08T16:21:00.576Z,23.76
2022-08-08T16:23:43.953Z,23.71
2022-08-08T16:26:34.765Z,23.67
2022-08-08T16:29:23.802Z,23.64
2022-08-08T16:32:32.221Z,23.60
2022-08-08T16:35:15.670Z,23.58
2022-08-08T16:38:01.965Z,23.54
2022-08-08T16:40:46.603Z,23.48
2022-08-08T16:43:42.056Z,23.40
2022-08-08T16:46:42.844Z,23.25
2022-08-08T16:49:38.276Z,23.14
2022-08-08T16:55:01.830Z,23.09
2022-08-08T16:55:53.884Z,23.03
2022-08-08T16:58:32.511Z,22.97
2022-08-08T17:01:17.638Z,22.92
2022-08-08T17:04:04.270Z,22.88
2022-08-08T17:06:47.341Z,22.83
2022-08-08T17:09:44.827Z,22.77
2022-08-08T17:12:28.872Z,22.64
2022-08-08T17:15:17.453Z,22.52
2022-08-08T17:18:04.621Z,22.44
2022-08-08T17:20:56.630Z,22.29
2022-08-08T17:24:00.041Z,22.18
2022-08-08T17:26:42.931Z,22.08
2022-08-08T17:29:27.702Z,22.01
2022-08-08T17:32:12.029Z,21.96
2022-08-08T17:35:54.603Z,21.89
2022-08-08T17:38:00.253Z,21.82
2022-08-08T17:40:48.920Z,21.78
2022-08-08T17:43:32.167Z,21.72
2022-08-08T17:46:36.566Z,21.69
2022-08-08T17:49:24.109Z,21.63
2022-08-08T17:52:11.722Z,21.55
2022-08-08T17:54:56.743Z,21.49
2022-08-08T17:57:39.874Z,21.44
2022-08-08T18:00:30.215Z,21.38
2022-08-08T18:03:14.188Z,21.33
2022-08-08T18:05:57.265Z,21.27
2022-08-08T18:08:41.993Z,21.21
2022-08-08T18:11:29.498Z,21.07
2022-08-08T18:14:21.763Z,20.92
2022-08-08T18:17:06.683Z,20.81
2022-08-08T18:20:36.895Z,20.69
2022-08-08T18:23:12.495Z,20.63
2022-08-08T18:26:01.466Z,20.60
2022-08-08T18:28:54.840Z,20.47
2022-08-08T18:31:39.310Z,20.41
2022-08-08T18:34:26.766Z,20.38
2022-08-08T18:37:17.830Z,20.29
2022-08-08T18:40:14.068Z,20.26
2022-08-08T18:42:57.179Z,20.19
2022-08-08T18:46:53.377Z,20.10
2022-08-08T18:48:44.698Z,20.05
2022-08-08T18:51:52.484Z,19.91
2022-08-08T18:54:33.250Z,19.77
2022-08-08T18:57:17.054Z,19.69
2022-08-08T19:00:01.484Z,19.65
2022-08-08T19:02:48.061Z,19.59
2022-08-08T19:05:37.312Z,19.45
2022-08-08T19:08:29.435Z,19.37
2022-08-08T19:11:12.701Z,19.36
2022-08-08T19:14:00.814Z,19.35
2022-08-08T19:16:43.990Z,19.33
2022-08-08T19:19:30.057Z,19.33
2022-08-08T19:22:14.483Z,19.27
2022-08-08T19:26:02.421Z,19.23
2022-08-08T19:28:17.929Z,19.25
2022-08-08T19:31:08.941Z,19.22
2022-08-08T19:34:30.156Z,19.16
2022-08-08T19:36:58.925Z,19.05
2022-08-08T19:39:42.970Z,18.98
2022-08-08T19:42:28.698Z,18.90
2022-08-08T19:45:14.068Z,18.76
2022-08-08T19:47:57.459Z,18.57
2022-08-08T19:50:40.491Z,18.41
2022-08-08T19:53:50.948Z,18.27
2022-08-08T19:56:40.417Z,18.18
2022-08-08T19:59:24.045Z,18.13
2022-08-08T20:02:10.557Z,18.06
2022-08-08T20:04:53.741Z,17.95
2022-08-08T20:08:30.135Z,17.93
2022-08-08T20:10:42.509Z,17.92
2022-08-08T20:14:31.420Z,17.96
2022-08-08T20:16:29.585Z,17.96
2022-08-08T20:19:13.831Z,17.94
2022-08-08T20:22:01.090Z,17.90
2022-08-08T20:24:46.192Z,17.82
2022-08-08T20:27:43.733Z,17.77
2022-08-08T20:30:53.179Z,17.75
2022-08-08T20:34:03.922Z,17.74
2022-08-08T20:36:39.866Z,17.75
2022-08-08T20:39:39.399Z,17.77
2022-08-08T20:42:28.353Z,17.79
2022-08-08T20:45:14.318Z,17.79
2022-08-08T20:48:21.480Z,17.79
2022-08-08T20:51:09.369Z,17.76
2022-08-08T20:53:59.755Z,17.76
2022-08-08T20:57:05.767Z,17.75
2022-08-08T20:59:51.786Z,17.72
2022-08-08T21:02:37.226Z,17.68
2022-08-08T21:05:21.471Z,17.67
2022-08-08T21:08:37.305Z,17.65
2022-08-08T21:11:09.736Z,17.64
2022-08-08T21:13:54.014Z,17.60
2022-08-08T21:16:41.635Z,17.55
2022-08-08T21:19:26.084Z,17.49
2022-08-08T21:22:17.278Z,17.43
2022-08-08T21:25:00.390Z,17.40
2022-08-08T21:28:09.681Z,17.38
2022-08-08T21:30:52.128Z,17.39
2022-08-08T21:33:35.934Z,17.38
2022-08-08T21:36:28.424Z,17.37
2022-08-08T21:39:16.568Z,17.36
2022-08-08T21:41:59.759Z,17.27
2022-08-08T21:44:58.723Z,17.14
2022-08-08T21:48:05.916Z,17.03
2022-08-08T21:50:48.158Z,16.87
2022-08-08T21:54:34.782Z,16.68
2022-08-08T21:56:42.134Z,16.44
2022-08-08T21:59:26.690Z,16.33
2022-08-08T22:02:27.223Z,16.24
2022-08-08T22:05:10.756Z,16.13
2022-08-08T22:08:00.235Z,16.09
2022-08-08T22:10:45.272Z,16.06
2022-08-08T22:13:47.835Z,16.08
2022-08-08T22:16:34.650Z,16.07
2022-08-08T22:19:17.782Z,16.14
2022-08-08T22:22:06.926Z,16.16
2022-08-08T22:24:56.287Z,16.19
2022-08-08T22:28:02.807Z,16.19
2022-08-08T22:30:50.936Z,16.20
2022-08-08T22:34:13.258Z,16.19
2022-08-08T22:36:39.663Z,16.19
2022-08-08T22:39:39.478Z,16.17
2022-08-08T22:42:31.990Z,16.19
2022-08-08T22:45:19.171Z,16.20
2022-08-08T22:48:02.434Z,16.23
2022-08-08T22:50:45.690Z,16.24
2022-08-08T22:54:33.781Z,16.25
2022-08-08T22:56:34.762Z,16.28
2022-08-08T22:59:18.816Z,16.31
2022-08-08T23:02:12.809Z,16.30
2022-08-08T23:05:05.054Z,16.29
2022-08-08T23:07:58.016Z,16.28
2022-08-08T23:10:41.241Z,16.27
2022-08-08T23:13:25.565Z,16.26
2022-08-08T23:16:41.720Z,16.22
2022-08-08T23:19:32.369Z,16.25
2022-08-08T23:22:16.727Z,16.25
2022-08-08T23:24:59.771Z,16.22
2022-08-08T23:27:46.609Z,16.08
2022-08-08T23:30:29.811Z,15.97
2022-08-08T23:33:19.168Z,15.90
2022-08-08T23:36:20.703Z,15.87
2022-08-08T23:39:09.534Z,15.81
2022-08-08T23:41:53.546Z,15.76
2022-08-08T23:44:38.441Z,15.78
2022-08-08T23:49:08.765Z,15.79
2022-08-08T23:50:30.039Z,15.83
2022-08-08T23:53:30.800Z,15.84
2022-08-08T23:56:31.945Z,15.84
2022-08-08T23:59:16.905Z,15.80
